Gerlach, Nevada
Current Conditions -  °F | °C
As of 7:53 AM on Friday 24 Oct 2014 (Local Time) from KLOL Reporting Station
Clear Clear  
Wind Chill: 31°   Ceiling: Unl
Heat Index: 31°   Visibility: 10mi
Dew Point: 22°   Wind: 3mph
Humidity: 69%   Direction: 70°ENE
Pressure: 30.1"   Gusts: NA
Location:  40.65°N, 119.36°W
Report Text: KLOL 241453Z AUTO 07003KT 10SM CLR M01/M06 A3010 RMK AO2 SLP192 T10061056 53011
Loading
Personal Weather Stations






























Interactive Weather Map
Tropical Storm Tracking
New forecast layout! Learn more

10-Day Weather Forecast

Advertisements
Track Severe Weather on mobile